Time;durP1;ratioP1;P1;durP2;ratioP2;P2;SDS_P1;SDS_P2;PMS_P1;PMS_P2;Temp;Humidity;BMP_temperature;BMP_pressure;BME280_temperature;BME280_humidity;BME280_pressure;Samples;Min_cycle;Max_cycle;Signal;HPM_P1;HPM_P2
2022/01/06 00:01:01;;;;;;;6.40;1.55;;;;;;;-0.13;100.00;99409.84;4942426;29;20480;-81
2022/01/06 00:03:27;;;;;;;8.80;1.73;;;;;;;-0.20;100.00;99394.81;4943681;29;20047;-81
2022/01/06 00:05:55;;;;;;;4.72;1.48;;;;;;;-0.24;100.00;99397.78;4941078;29;20035;-82
2022/01/06 00:08:21;;;;;;;6.53;1.77;;;;;;;-0.43;100.00;99374.16;4944276;29;20063;-83
2022/01/06 00:10:49;;;;;;;3.90;1.17;;;;;;;-0.38;100.00;99375.59;4944836;29;20410;-82
2022/01/06 00:13:19;;;;;;;10.70;2.03;;;;;;;-0.33;100.00;99394.13;4941702;29;20051;-82
2022/01/06 00:26:02;;;;;;;11.20;2.10;;;;;;;-0.12;100.00;99383.13;4942314;29;20090;-82
2022/01/06 00:28:30;;;;;;;7.43;1.80;;;;;;;-0.13;100.00;99384.06;4945419;29;20036;-84
2022/01/06 00:30:56;;;;;;;7.70;2.05;;;;;;;-0.20;100.00;99369.03;4941140;29;20078;-84
2022/01/06 00:33:23;;;;;;;6.47;1.88;;;;;;;-0.24;100.00;99377.94;4943123;29;20055;-83
2022/01/06 00:35:49;;;;;;;5.32;1.40;;;;;;;-0.23;100.00;99369.25;4948933;29;20042;-84
2022/01/06 00:38:15;;;;;;;7.05;2.03;;;;;;;-0.38;100.00;99353.19;4940177;29;20031;-84
2022/01/06 00:40:40;;;;;;;4.65;1.50;;;;;;;-0.44;100.00;99351.88;4927490;29;20108;-84
2022/01/06 00:43:07;;;;;;;7.22;1.73;;;;;;;-0.30;100.00;99376.63;4940853;29;20485;-84
2022/01/06 00:45:36;;;;;;;7.28;1.23;;;;;;;-0.45;100.00;99357.19;4947684;29;20058;-82
2022/01/06 00:48:03;;;;;;;4.35;1.50;;;;;;;-0.43;100.00;99368.19;4926150;29;20031;-83
2022/01/06 00:50:29;;;;;;;7.05;1.40;;;;;;;-0.58;100.00;99341.81;4924006;29;21410;-83
2022/01/06 00:52:55;;;;;;;9.27;2.03;;;;;;;-0.40;100.00;99365.38;4939558;29;20051;-82
2022/01/06 00:55:20;;;;;;;5.90;1.88;;;;;;;-0.47;100.00;99361.63;4942121;29;20147;-84
2022/01/06 00:57:46;;;;;;;7.55;1.98;;;;;;;-0.60;100.00;99361.72;4945153;29;20086;-84
2022/01/06 01:00:12;;;;;;;7.93;1.80;;;;;;;-0.56;100.00;99358.00;4945038;29;20028;-84
2022/01/06 01:02:38;;;;;;;6.13;1.67;;;;;;;-0.53;100.00;99347.44;4938860;29;20500;-84
2022/01/06 01:05:04;;;;;;;9.77;1.55;;;;;;;-0.50;100.00;99342.03;4944286;29;20024;-83
2022/01/06 01:07:30;;;;;;;5.68;1.67;;;;;;;-0.46;100.00;99348.59;4949331;29;20041;-84
2022/01/06 01:09:55;;;;;;;6.88;1.95;;;;;;;-0.53;100.00;99336.28;4950654;29;20031;-84
2022/01/06 01:12:24;;;;;;;8.95;1.98;;;;;;;-0.66;100.00;99326.91;4941599;29;20023;-83
2022/01/06 01:14:56;;;;;;;15.10;2.45;;;;;;;-0.64;100.00;99337.09;4941205;29;20130;-84
2022/01/06 01:17:25;;;;;;;8.02;1.88;;;;;;;-0.60;100.00;99341.09;4928586;29;20122;-84
2022/01/06 01:19:51;;;;;;;5.60;1.17;;;;;;;-0.66;100.00;99331.25;4944324;29;20027;-84
2022/01/06 01:22:16;;;;;;;8.18;1.65;;;;;;;-0.73;100.00;99336.84;4943673;29;20465;-83
2022/01/06 01:24:42;;;;;;;8.77;1.27;;;;;;;-0.88;100.00;99317.38;4944293;29;20035;-84
2022/01/06 01:27:08;;;;;;;4.80;1.35;;;;;;;-0.94;100.00;99307.53;4945597;29;20087;-84
2022/01/06 01:29:41;;;;;;;3.67;1.00;;;;;;;-0.89;100.00;99332.00;4940600;29;20031;-83
2022/01/06 01:32:07;;;;;;;4.15;1.20;;;;;;;-0.86;100.00;99325.81;4943356;29;20237;-83
2022/01/06 01:34:33;;;;;;;5.20;1.58;;;;;;;-0.78;100.00;99327.81;4943817;29;20122;-84
2022/01/06 01:36:58;;;;;;;6.70;1.48;;;;;;;-0.84;100.00;99326.50;4943610;29;20063;-83
2022/01/06 01:39:25;;;;;;;7.80;1.60;;;;;;;-0.87;100.00;99334.47;4946443;29;20063;-84
2022/01/06 01:41:51;;;;;;;6.70;1.20;;;;;;;-0.94;100.00;99326.38;4929020;29;20435;-84
2022/01/06 01:44:19;;;;;;;8.43;1.45;;;;;;;-0.93;100.00;99327.22;4946906;29;20066;-83
2022/01/06 01:46:59;;;;;;;5.00;1.50;;;;;;;-0.91;100.00;99304.72;4944015;29;20054;-85
2022/01/06 01:51:51;;;;;;;2.83;1.05;;;;;;;-0.84;100.00;99305.09;4950803;29;20063;-84
2022/01/06 01:54:17;;;;;;;7.90;1.85;;;;;;;-0.92;100.00;99285.03;4942689;29;20050;-84
2022/01/06 01:56:44;;;;;;;4.00;1.30;;;;;;;-0.73;100.00;99299.94;4945831;29;20039;-83
2022/01/06 01:59:10;;;;;;;7.70;1.52;;;;;;;-0.83;100.00;99294.66;4948664;28;20031;-83
2022/01/06 02:01:36;;;;;;;6.85;1.02;;;;;;;-0.93;100.00;99279.06;4929095;29;20055;-84
2022/01/06 02:04:02;;;;;;;8.82;1.27;;;;;;;-0.78;100.00;99292.56;4940961;29;20067;-84
2022/01/06 02:06:28;;;;;;;8.48;2.00;;;;;;;-0.91;100.00;99276.38;4930333;29;20085;-84
2022/01/06 02:08:54;;;;;;;7.00;1.33;;;;;;;-0.83;100.00;99294.66;4943018;29;20115;-83
2022/01/06 02:11:22;;;;;;;9.27;2.58;;;;;;;-0.79;100.00;99301.22;4948838;29;20039;-84
2022/01/06 02:13:52;;;;;;;7.18;1.13;;;;;;;-0.76;100.00;99313.91;4946973;29;20027;-83
2022/01/06 02:16:22;;;;;;;5.28;1.10;;;;;;;-0.72;100.00;99312.72;4947347;29;20032;-85
2022/01/06 02:18:49;;;;;;;6.32;1.52;;;;;;;-0.67;100.00;99306.41;4947081;29;20031;-83
2022/01/06 02:21:14;;;;;;;7.13;1.33;;;;;;;-0.58;100.00;99310.88;4947408;29;20031;-84
2022/01/06 02:23:40;;;;;;;7.15;1.40;;;;;;;-0.60;100.00;99315.28;4947368;29;20063;-84
2022/01/06 02:26:06;;;;;;;12.00;1.52;;;;;;;-0.63;100.00;99305.22;4945701;29;20107;-85
2022/01/06 02:28:32;;;;;;;14.25;2.15;;;;;;;-0.78;100.00;99297.72;4945769;29;20035;-85
2022/01/06 02:30:58;;;;;;;6.22;1.60;;;;;;;-0.87;100.00;99301.81;4943681;29;20495;-84
2022/01/06 02:33:24;;;;;;;11.85;2.25;;;;;;;-0.88;100.00;99310.47;4948351;29;20063;-82
2022/01/06 02:35:51;;;;;;;6.63;1.70;;;;;;;-1.06;100.00;99294.59;4947536;29;20415;-83
2022/01/06 02:38:18;;;;;;;12.07;2.60;;;;;;;-1.13;100.00;99306.31;4946501;29;20549;-83
2022/01/06 02:40:45;;;;;;;6.22;1.58;;;;;;;-1.37;100.00;99301.19;4951010;29;20027;-83
2022/01/06 02:43:14;;;;;;;2.65;1.27;;;;;;;-1.43;100.00;99312.75;4947680;29;20606;-83
2022/01/06 02:45:41;;;;;;;8.88;2.10;;;;;;;-1.65;100.00;99306.56;4942890;28;20477;-83
2022/01/06 02:48:08;;;;;;;5.95;1.58;;;;;;;-1.68;100.00;99319.66;4947976;29;20489;-83
2022/01/06 02:50:40;;;;;;;10.40;2.10;;;;;;;-1.86;100.00;99306.34;4943377;29;20458;-83
2022/01/06 02:53:07;;;;;;;5.10;1.75;;;;;;;-1.96;100.00;99308.72;4945081;28;20040;-83
2022/01/06 02:55:34;;;;;;;8.20;1.75;;;;;;;-1.99;100.00;99308.13;4948055;29;20155;-83
2022/01/06 02:58:00;;;;;;;7.78;2.03;;;;;;;-1.99;100.00;99297.81;4945889;29;20066;-82
2022/01/06 03:00:26;;;;;;;6.25;1.75;;;;;;;-1.92;100.00;99296.47;4944883;29;20401;-82
2022/01/06 03:02:51;;;;;;;9.77;1.83;;;;;;;-1.96;100.00;99303.59;4944952;29;20453;-82
2022/01/06 03:05:17;;;;;;;7.63;2.20;;;;;;;-1.87;100.00;99294.38;4944694;29;20055;-83
2022/01/06 03:07:44;;;;;;;5.45;1.88;;;;;;;-1.67;100.00;99298.13;4946096;29;20541;-83
2022/01/06 03:10:13;;;;;;;13.57;2.55;;;;;;;-1.54;100.00;99292.09;4943465;29;20158;-84
2022/01/06 03:12:39;;;;;;;9.32;2.03;;;;;;;-1.39;100.00;99296.13;4925161;29;20032;-82
2022/01/06 03:15:10;;;;;;;7.32;1.85;;;;;;;-1.35;100.00;99276.13;4943972;29;20508;-82
2022/01/06 03:17:38;;;;;;;16.77;2.08;;;;;;;-1.04;100.00;99272.13;4942736;29;20058;-83
2022/01/06 03:20:05;;;;;;;14.80;3.35;;;;;;;-0.70;100.00;99283.44;4942586;29;20086;-84
2022/01/06 03:22:31;;;;;;;8.80;1.63;;;;;;;-0.82;100.00;99244.75;4942913;29;20023;-83
2022/01/06 03:25:00;;;;;;;9.07;2.03;;;;;;;-0.59;100.00;99266.22;4928930;29;20065;-82
2022/01/06 03:27:26;;;;;;;9.75;2.17;;;;;;;-0.56;100.00;99249.69;4945701;29;20043;-82
2022/01/06 03:29:51;;;;;;;17.85;2.97;;;;;;;-0.54;100.00;99227.19;4942607;29;20035;-82
2022/01/06 03:32:17;;;;;;;11.13;2.28;;;;;;;-0.27;100.00;99256.13;4943336;29;20055;-83
2022/01/06 03:34:44;;;;;;;9.82;2.50;;;;;;;-0.33;100.00;99249.66;4941741;29;20035;-81
2022/01/06 03:37:10;;;;;;;9.18;2.90;;;;;;;-0.22;100.00;99254.81;4943215;29;20486;-82
2022/01/06 03:39:35;;;;;;;9.05;2.58;;;;;;;-0.22;100.00;99252.22;4945058;29;20035;-82
2022/01/06 03:42:01;;;;;;;19.63;2.78;;;;;;;-0.23;100.00;99240.25;4944496;29;20034;-83
2022/01/06 03:44:26;;;;;;;13.15;2.95;;;;;;;-0.37;100.00;99232.81;4928834;29;20034;-83
2022/01/06 03:46:55;;;;;;;10.85;2.20;;;;;;;-0.35;100.00;99242.03;4943256;28;20047;-82
2022/01/06 03:49:21;;;;;;;7.88;2.30;;;;;;;-0.27;100.00;99227.75;4942175;29;20028;-83
2022/01/06 03:51:47;;;;;;;8.38;2.35;;;;;;;0.02;100.00;99253.00;4946178;29;20035;-82
2022/01/06 03:54:12;;;;;;;5.03;2.22;;;;;;;-0.20;100.00;99232.28;4928268;29;20038;-83
2022/01/06 03:56:38;;;;;;;8.85;2.53;;;;;;;-0.06;100.00;99236.38;4942889;29;20066;-82
2022/01/06 03:59:04;;;;;;;9.68;1.85;;;;;;;-0.05;100.00;99237.19;4944016;29;20048;-84
2022/01/06 04:01:30;;;;;;;9.50;2.10;;;;;;;0.04;100.00;99241.63;4946999;28;20478;-82
2022/01/06 04:03:56;;;;;;;6.45;1.98;;;;;;;0.01;100.00;99225.56;4946002;29;20023;-83
2022/01/06 04:06:21;;;;;;;13.10;3.00;;;;;;;0.10;100.00;99220.50;4946539;29;20398;-83
2022/01/06 04:08:47;;;;;;;9.55;2.45;;;;;;;-0.09;100.00;99225.47;4942920;29;20478;-84
2022/01/06 04:11:13;;;;;;;12.80;2.38;;;;;;;-0.18;100.00;99221.84;4942422;29;20114;-83
2022/01/06 04:13:38;;;;;;;9.73;2.10;;;;;;;-0.33;100.00;99209.22;4942985;29;20039;-83
2022/01/06 04:16:14;;;;;;;11.65;2.25;;;;;;;-0.29;100.00;99225.28;4944862;29;20040;-84
2022/01/06 04:18:40;;;;;;;8.43;2.45;;;;;;;-0.21;100.00;99225.47;4941589;29;20506;-83
2022/01/06 04:21:07;;;;;;;10.23;2.33;;;;;;;-0.23;100.00;99214.47;4941476;29;20042;-83
2022/01/06 04:23:33;;;;;;;7.80;2.20;;;;;;;-0.11;100.00;99217.84;4947003;29;20062;-83
2022/01/06 04:26:00;;;;;;;7.10;2.00;;;;;;;-0.06;100.00;99210.56;4942578;29;20494;-82
2022/01/06 04:28:25;;;;;;;9.63;1.90;;;;;;;-0.02;100.00;99221.44;4927566;29;20122;-83
2022/01/06 04:30:51;;;;;;;9.40;2.65;;;;;;;0.00;100.00;99204.13;4941097;29;20031;-84
2022/01/06 04:33:17;;;;;;;4.82;1.67;;;;;;;0.21;100.00;99211.06;4945783;29;20046;-83
2022/01/06 04:35:42;;;;;;;3.45;1.58;;;;;;;0.28;100.00;99212.22;4943206;29;20046;-83
2022/01/06 04:38:08;;;;;;;7.20;1.77;;;;;;;0.04;100.00;99184.03;4948447;29;20050;-84
2022/01/06 04:40:33;;;;;;;6.90;2.47;;;;;;;0.07;100.00;99207.00;4926467;29;20023;-83
2022/01/06 04:42:59;;;;;;;6.07;2.10;;;;;;;0.01;100.00;99200.59;4943404;29;20035;-84
2022/01/06 04:45:25;;;;;;;9.90;1.75;;;;;;;-0.08;100.00;99180.66;4942899;29;20031;-83
2022/01/06 04:47:50;;;;;;;5.85;1.70;;;;;;;-0.08;100.00;99188.41;4933865;29;20568;-83
2022/01/06 04:50:16;;;;;;;6.75;1.90;;;;;;;-0.12;100.00;99169.75;4925376;29;20039;-83
2022/01/06 04:52:41;;;;;;;8.63;3.15;;;;;;;-0.04;100.00;99182.88;4941069;29;20146;-83
2022/01/06 04:55:08;;;;;;;11.35;3.78;;;;;;;0.08;100.00;99191.41;4922841;29;20042;-83
2022/01/06 04:57:33;;;;;;;14.02;3.72;;;;;;;0.13;100.00;99184.09;4943008;29;20042;-83
2022/01/06 04:59:59;;;;;;;7.40;3.65;;;;;;;0.16;100.00;99184.78;4942816;29;20041;-83
2022/01/06 05:02:24;;;;;;;16.20;5.47;;;;;;;0.18;100.00;99198.38;4929606;29;20042;-82
2022/01/06 05:04:50;;;;;;;11.30;4.90;;;;;;;0.09;100.00;99167.22;4944630;29;20039;-83
2022/01/06 05:07:15;;;;;;;12.93;4.72;;;;;;;0.22;100.00;99172.22;4932730;29;20127;-83
2022/01/06 05:09:41;;;;;;;9.88;4.35;;;;;;;0.28;100.00;99170.91;4939605;29;20027;-82
2022/01/06 05:12:07;;;;;;;14.57;5.10;;;;;;;0.44;100.00;99177.41;4945969;29;20035;-82
2022/01/06 05:14:32;;;;;;;15.57;3.47;;;;;;;0.49;100.00;99180.41;4947899;29;20035;-83
2022/01/06 05:16:59;;;;;;;11.60;4.22;;;;;;;0.40;100.00;99169.91;4930933;29;20104;-83
2022/01/06 05:19:26;;;;;;;12.35;3.42;;;;;;;0.58;100.00;99166.72;4950302;29;20036;-82
2022/01/06 05:21:53;;;;;;;12.65;3.17;;;;;;;0.63;100.00;99164.59;4948883;29;20028;-83
2022/01/06 05:24:20;;;;;;;9.30;3.40;;;;;;;0.66;100.00;99148.84;4944823;29;20035;-85
2022/01/06 05:26:46;;;;;;;14.05;2.78;;;;;;;0.73;100.00;99145.75;4947146;29;20398;-83
2022/01/06 05:29:13;;;;;;;14.35;3.03;;;;;;;0.81;100.00;99157.06;4949980;29;20027;-84
2022/01/06 05:31:39;;;;;;;5.50;2.42;;;;;;;0.82;100.00;99152.75;4945481;29;20031;-83
2022/01/06 05:34:06;;;;;;;8.80;2.78;;;;;;;0.91;100.00;99153.75;4947402;29;20038;-83
2022/01/06 05:36:33;;;;;;;7.63;2.08;;;;;;;0.94;100.00;99149.09;4944670;29;20031;-82
2022/01/06 05:38:59;;;;;;;8.75;2.45;;;;;;;0.90;100.00;99145.16;4948222;29;20036;-83
2022/01/06 05:41:25;;;;;;;9.93;1.98;;;;;;;1.02;100.00;99137.31;4948488;29;20042;-83
2022/01/06 05:43:50;;;;;;;6.57;2.20;;;;;;;1.03;100.00;99136.38;4929129;29;20394;-82
2022/01/06 05:46:19;;;;;;;6.90;2.40;;;;;;;1.13;100.00;99139.78;4944578;29;20035;-82
2022/01/06 05:48:45;;;;;;;12.15;3.08;;;;;;;1.16;100.00;99149.88;4929790;29;20055;-82
2022/01/06 05:51:11;;;;;;;9.20;2.63;;;;;;;1.23;100.00;99148.41;4929008;29;20433;-82
2022/01/06 05:53:36;;;;;;;9.65;2.40;;;;;;;1.19;100.00;99152.22;4948503;29;20043;-82
2022/01/06 05:56:03;;;;;;;9.60;2.65;;;;;;;1.11;100.00;99137.34;4946138;29;20038;-83
2022/01/06 05:58:29;;;;;;;12.55;2.75;;;;;;;1.04;100.00;99138.81;4944380;29;20486;-83
2022/01/06 06:00:54;;;;;;;10.63;2.85;;;;;;;1.04;100.00;99125.06;4949621;29;20045;-82
2022/01/06 06:03:22;;;;;;;7.80;2.63;;;;;;;1.01;100.00;99130.50;4944266;29;20035;-84
2022/01/06 06:05:48;;;;;;;9.85;3.22;;;;;;;1.02;100.00;99129.56;4944609;29;20047;-82
2022/01/06 06:08:14;;;;;;;11.68;3.83;;;;;;;1.02;100.00;99129.56;4946959;29;20040;-84
2022/01/06 06:10:39;;;;;;;10.05;3.30;;;;;;;0.99;100.00;99125.47;4944881;29;20061;-84
2022/01/06 06:13:05;;;;;;;9.95;3.75;;;;;;;1.03;100.00;99128.63;4945418;29;20118;-82
2022/01/06 06:15:34;;;;;;;13.02;4.28;;;;;;;1.03;100.00;99124.25;4945044;29;20130;-83
2022/01/06 06:18:04;;;;;;;10.52;3.97;;;;;;;0.86;100.00;99107.59;4943980;29;20031;-84
2022/01/06 06:20:30;;;;;;;12.27;3.70;;;;;;;1.02;100.00;99132.16;4926761;29;20049;-83
2022/01/06 06:22:56;;;;;;;11.38;3.88;;;;;;;1.03;100.00;99123.44;4946710;29;20083;-82
2022/01/06 06:25:22;;;;;;;11.88;4.30;;;;;;;0.98;100.00;99127.25;4946508;29;20042;-82
2022/01/06 06:27:49;;;;;;;10.70;4.32;;;;;;;0.92;100.00;99108.84;4945124;29;20038;-84
2022/01/06 06:30:14;;;;;;;17.75;5.13;;;;;;;1.05;100.00;99118.97;4949255;29;20379;-85
2022/01/06 06:32:41;;;;;;;18.77;5.30;;;;;;;1.03;100.00;99118.28;4945886;29;20035;-84
2022/01/06 06:35:07;;;;;;;14.23;5.30;;;;;;;1.01;100.00;99108.06;4946585;29;20031;-84
2022/01/06 06:37:33;;;;;;;9.77;4.15;;;;;;;1.01;100.00;99107.25;4943712;29;20063;-83
2022/01/06 06:39:59;;;;;;;11.80;4.90;;;;;;;0.95;100.00;99101.63;4945414;29;20031;-83
2022/01/06 06:42:25;;;;;;;13.98;4.85;;;;;;;1.02;100.00;99106.31;4945076;29;20028;-84
2022/01/06 06:44:51;;;;;;;19.02;4.80;;;;;;;1.06;100.00;99118.00;4927317;29;20493;-83
2022/01/06 06:47:17;;;;;;;17.52;4.80;;;;;;;1.05;100.00;99095.69;4943811;29;20042;-84
2022/01/06 06:49:43;;;;;;;17.88;4.38;;;;;;;1.17;100.00;99111.91;4944720;29;20032;-83
2022/01/06 06:52:09;;;;;;;13.73;3.78;;;;;;;1.01;100.00;99097.72;4945981;29;20031;-84
2022/01/06 06:54:35;;;;;;;19.33;4.78;;;;;;;1.20;100.00;99112.47;4942327;29;20079;-83
2022/01/06 06:57:01;;;;;;;20.13;5.07;;;;;;;1.15;100.00;99096.53;4941091;29;20443;-83
2022/01/06 06:59:27;;;;;;;14.18;3.72;;;;;;;1.17;100.00;99089.44;4927804;29;20027;-82
2022/01/06 07:01:53;;;;;;;13.98;3.53;;;;;;;1.32;100.00;99102.84;4946682;28;20095;-83
2022/01/06 07:04:18;;;;;;;13.25;4.20;;;;;;;1.35;100.00;99099.97;4949851;29;20086;-84
2022/01/06 07:06:44;;;;;;;12.00;4.78;;;;;;;1.38;100.00;99093.72;4943225;29;20054;-78
2022/01/06 07:09:09;;;;;;;12.77;4.22;;;;;;;1.34;100.00;99084.59;4947035;29;20067;-79
2022/01/06 07:11:35;;;;;;;13.07;3.70;;;;;;;1.35;100.00;99079.28;4943394;29;20034;-78
2022/01/06 07:14:01;;;;;;;12.60;3.80;;;;;;;1.33;100.00;99068.28;4945015;29;20031;-81
2022/01/06 07:16:27;;;;;;;13.07;4.68;;;;;;;1.39;100.00;99072.88;4947056;29;20658;-81
2022/01/06 07:18:52;;;;;;;15.15;4.13;;;;;;;1.31;100.00;99066.75;4926244;29;20035;-81
2022/01/06 07:21:18;;;;;;;15.85;6.25;;;;;;;1.32;100.00;99056.28;4945250;29;20587;-80
2022/01/06 07:23:43;;;;;;;15.77;4.72;;;;;;;1.31;100.00;99054.66;4943752;29;20087;-81
2022/01/06 07:26:09;;;;;;;14.63;4.28;;;;;;;1.35;100.00;99050.84;4931218;29;20032;-86
2022/01/06 07:28:35;;;;;;;13.52;5.07;;;;;;;1.22;100.00;99040.75;4923497;29;20119;-80
2022/01/06 07:31:01;;;;;;;12.85;4.80;;;;;;;1.27;100.00;99042.91;4927154;29;20110;-81
2022/01/06 07:33:26;;;;;;;17.17;4.60;;;;;;;1.22;100.00;99030.41;4946408;29;20035;-83
2022/01/06 07:35:52;;;;;;;26.50;5.88;;;;;;;1.23;100.00;99032.06;4946579;29;20035;-82
2022/01/06 07:38:18;;;;;;;15.85;5.57;;;;;;;1.33;100.00;99041.56;4949530;29;20038;-83
2022/01/06 07:40:44;;;;;;;29.00;6.32;;;;;;;1.24;100.00;99025.94;4946019;29;20035;-80
2022/01/06 07:43:10;;;;;;;19.10;6.63;;;;;;;1.23;100.00;99021.72;4930131;29;20079;-80
2022/01/06 07:45:36;;;;;;;24.23;6.45;;;;;;;1.31;100.00;99020.19;4947802;29;20039;-82
2022/01/06 07:48:04;;;;;;;28.35;7.07;;;;;;;1.34;100.00;99022.50;4944228;29;20163;-80
2022/01/06 07:50:32;;;;;;;34.60;6.65;;;;;;;1.34;100.00;99005.25;4927827;29;20118;-82
2022/01/06 07:52:58;;;;;;;34.13;7.35;;;;;;;1.27;100.00;98999.78;4946444;29;20031;-81
2022/01/06 07:55:26;;;;;;;38.30;7.88;;;;;;;1.25;100.00;98993.09;4927209;29;20481;-80
2022/01/06 07:57:54;;;;;;;25.75;7.88;;;;;;;1.13;100.00;98989.84;4944596;29;20028;-80
2022/01/06 08:00:21;;;;;;;29.10;6.88;;;;;;;1.05;100.00;98982.75;4927968;29;20030;-81
2022/01/06 08:02:47;;;;;;;25.63;5.53;;;;;;;1.11;100.00;98986.56;4939758;29;20039;-81
2022/01/06 08:05:15;;;;;;;19.55;7.60;;;;;;;0.98;100.00;98974.75;4923021;29;20031;-81
2022/01/06 08:07:41;;;;;;;15.75;6.05;;;;;;;0.99;100.00;98986.72;4943578;29;20046;-81
2022/01/06 08:10:09;;;;;;;19.80;6.63;;;;;;;0.81;100.00;98971.03;4942593;29;20042;-81
2022/01/06 08:12:35;;;;;;;12.23;5.60;;;;;;;0.89;100.00;98972.16;4944153;29;20042;-84
2022/01/06 08:15:01;;;;;;;15.75;6.65;;;;;;;0.78;100.00;98954.97;4927600;29;20530;-83
2022/01/06 08:17:26;;;;;;;11.73;5.93;;;;;;;0.73;100.00;98951.97;4926493;29;20072;-81
2022/01/06 08:19:52;;;;;;;16.88;6.03;;;;;;;0.78;100.00;98960.97;4947111;29;20082;-81
2022/01/06 08:22:19;;;;;;;16.92;5.95;;;;;;;0.63;100.00;98952.78;4929895;29;20036;-82
2022/01/06 08:24:45;;;;;;;14.98;6.13;;;;;;;0.48;100.00;98946.34;4939262;29;20039;-83
2022/01/06 08:27:11;;;;;;;18.33;5.80;;;;;;;0.54;100.00;98953.56;4945059;29;20038;-86
2022/01/06 08:29:38;;;;;;;13.73;6.53;;;;;;;0.29;100.00;98940.16;4944042;29;20035;-83
2022/01/06 08:32:04;;;;;;;16.73;5.97;;;;;;;0.42;100.00;98951.09;4947132;29;20041;-84
2022/01/06 08:34:29;;;;;;;14.43;6.38;;;;;;;0.24;100.00;98943.13;4946282;29;20393;-83
2022/01/06 08:36:55;;;;;;;14.10;5.97;;;;;;;0.30;100.00;98949.53;4945127;29;20032;-83
2022/01/06 08:39:21;;;;;;;19.67;8.15;;;;;;;0.14;100.00;98925.03;4939155;29;20031;-83
2022/01/06 08:41:47;;;;;;;20.45;6.78;;;;;;;0.29;100.00;98935.00;4926325;29;20375;-85
2022/01/06 08:44:13;;;;;;;17.17;6.80;;;;;;;0.20;100.00;98912.56;4942751;29;20055;-84
2022/01/06 08:46:38;;;;;;;13.77;6.05;;;;;;;0.29;100.00;98924.69;4944202;29;20127;-84
2022/01/06 08:49:06;;;;;;;17.70;6.57;;;;;;;0.07;100.00;98890.38;4943899;29;20032;-83
2022/01/06 08:51:32;;;;;;;20.83;8.43;;;;;;;0.13;100.00;98889.84;4930652;29;20043;-84
2022/01/06 08:53:58;;;;;;;14.88;6.40;;;;;;;0.26;100.00;98894.75;4947388;29;20386;-83
2022/01/06 08:56:24;;;;;;;18.55;6.25;;;;;;;0.37;100.00;98891.25;4943163;29;20035;-83
2022/01/06 08:58:50;;;;;;;12.93;6.55;;;;;;;0.55;100.00;98891.44;4945044;29;20127;-84
2022/01/06 09:01:16;;;;;;;16.30;6.78;;;;;;;0.56;100.00;98877.59;4950506;29;20059;-84
2022/01/06 09:03:42;;;;;;;19.08;6.30;;;;;;;0.48;100.00;98869.66;4942019;29;20043;-84
2022/01/06 09:06:07;;;;;;;13.68;6.32;;;;;;;0.76;100.00;98882.75;4945978;29;20462;-84
2022/01/06 09:08:33;;;;;;;12.07;5.93;;;;;;;0.90;100.00;98889.28;4940788;29;20035;-84
2022/01/06 09:10:59;;;;;;;14.40;6.90;;;;;;;0.87;100.00;98868.91;4940403;29;20110;-83
2022/01/06 09:13:24;;;;;;;17.17;6.50;;;;;;;0.86;100.00;98854.34;4940903;29;20078;-85
2022/01/06 09:15:50;;;;;;;15.55;5.70;;;;;;;0.81;100.00;98841.03;4940575;29;20046;-86
2022/01/06 09:18:18;;;;;;;16.58;6.75;;;;;;;0.93;100.00;98855.41;4949099;29;20031;-86
2022/01/06 09:20:44;;;;;;;19.83;6.45;;;;;;;0.94;100.00;98841.53;4935435;29;20031;-87
2022/01/06 09:23:09;;;;;;;20.15;6.88;;;;;;;0.88;100.00;98830.94;4948697;29;20023;-86
2022/01/06 09:25:38;;;;;;;16.70;6.30;;;;;;;0.96;100.00;98856.94;4949753;29;20067;-92
2022/01/06 09:28:04;;;;;;;14.98;5.88;;;;;;;0.92;100.00;98822.78;4927964;29;20027;-83
2022/01/06 09:30:29;;;;;;;17.98;6.78;;;;;;;0.90;100.00;98816.94;4943595;29;20046;-82
2022/01/06 09:32:55;;;;;;;17.50;6.40;;;;;;;0.90;100.00;98813.56;4921011;29;20034;-81
2022/01/06 09:35:22;;;;;;;19.52;7.75;;;;;;;1.16;100.00;98823.31;4944311;29;20074;-83
2022/01/06 09:37:47;;;;;;;15.13;6.70;;;;;;;1.07;100.00;98809.44;4938744;29;20051;-82
2022/01/06 09:40:13;;;;;;;15.77;7.15;;;;;;;0.96;100.00;98808.63;4927499;29;20045;-83
2022/01/06 09:42:43;;;;;;;19.33;7.50;;;;;;;1.08;100.00;98813.66;4948029;29;20039;-87
2022/01/06 09:45:10;;;;;;;15.55;7.18;;;;;;;1.27;100.00;98826.53;4949996;29;20378;-84
2022/01/06 09:47:37;;;;;;;15.82;5.93;;;;;;;1.35;100.00;98830.19;4940674;29;20044;-85
2022/01/06 09:50:04;;;;;;;19.13;5.97;;;;;;;1.20;100.00;98799.63;4943827;28;20028;-84
2022/01/06 09:52:33;;;;;;;17.48;6.03;;;;;;;1.34;100.00;98785.41;4946931;29;20054;-81
2022/01/06 09:54:59;;;;;;;16.23;6.13;;;;;;;1.45;100.00;98796.53;4943835;29;20039;-79
2022/01/06 09:57:24;;;;;;;17.52;6.20;;;;;;;1.50;100.00;98786.59;4946017;29;20078;-81
2022/01/06 09:59:50;;;;;;;16.30;5.95;;;;;;;1.31;100.00;98759.03;4944860;29;20094;-81
2022/01/06 10:02:16;;;;;;;21.23;6.00;;;;;;;1.50;100.00;98763.31;4932000;29;20103;-86
2022/01/06 10:04:56;;;;;;;14.15;5.75;;;;;;;1.55;100.00;98751.56;4937099;29;20039;-84
2022/01/06 10:07:22;;;;;;;16.02;6.63;;;;;;;1.60;100.00;98755.50;4948177;29;20122;-86
2022/01/06 10:09:49;;;;;;;17.98;5.90;;;;;;;1.65;100.00;98755.88;4943484;29;20493;-85
2022/01/06 10:12:15;;;;;;;23.65;6.13;;;;;;;1.59;100.00;98744.34;4946190;29;20093;-85
2022/01/06 10:14:50;;;;;;;12.10;5.60;;;;;;;1.63;100.00;98760.41;4947679;29;20359;-84
2022/01/06 10:17:30;;;;;;;25.67;6.03;;;;;;;1.64;100.00;98749.09;4950147;29;20036;-85
2022/01/06 10:19:55;;;;;;;18.98;6.65;;;;;;;1.54;100.00;98749.94;4946905;29;20031;-84
2022/01/06 10:22:21;;;;;;;16.30;4.63;;;;;;;1.63;100.00;98774.13;4942551;29;20030;-84
2022/01/06 10:24:50;;;;;;;10.80;4.65;;;;;;;1.60;100.00;98769.25;4949901;29;20103;-84
2022/01/06 10:27:18;;;;;;;13.38;4.38;;;;;;;1.54;100.00;98770.63;4949713;29;20032;-83
2022/01/06 10:29:48;;;;;;;16.10;5.00;;;;;;;1.76;100.00;98762.66;4944734;29;20079;-85
2022/01/06 10:32:19;;;;;;;14.00;4.78;;;;;;;1.70;100.00;98766.63;4946299;29;20489;-85
2022/01/06 10:34:49;;;;;;;12.38;4.32;;;;;;;1.63;100.00;98753.44;4945635;29;20053;-84
2022/01/06 10:37:27;;;;;;;13.90;4.88;;;;;;;1.68;100.00;98745.25;4925164;29;20046;-85
2022/01/06 10:39:57;;;;;;;13.55;3.53;;;;;;;1.54;100.00;98702.56;4951231;29;20035;-85
2022/01/06 10:42:25;;;;;;;10.85;4.05;;;;;;;1.78;100.00;98730.50;4944402;29;20055;-83
2022/01/06 10:44:55;;;;;;;11.13;4.47;;;;;;;1.70;100.00;98699.34;4950885;29;20034;-84
2022/01/06 10:47:30;;;;;;;8.27;3.63;;;;;;;1.78;100.00;98714.13;4945462;29;20078;-84
2022/01/06 10:50:14;;;;;;;11.90;4.10;;;;;;;1.91;100.00;98704.25;4947921;29;20062;-84
2022/01/06 10:52:44;;;;;;;11.35;3.83;;;;;;;1.85;100.00;98678.94;4944768;29;20071;-85
2022/01/06 10:55:21;;;;;;;18.13;5.97;;;;;;;1.85;100.00;98687.53;4941645;29;20030;-85
2022/01/06 10:58:04;;;;;;;11.70;4.03;;;;;;;2.02;100.00;98707.56;4946642;29;20055;-83
2022/01/06 11:00:41;;;;;;;12.10;3.60;;;;;;;2.10;100.00;98708.47;4944511;29;20019;-83
2022/01/06 11:03:19;;;;;;;9.18;3.45;;;;;;;2.06;100.00;98693.38;4950076;28;20030;-83
2022/01/06 11:05:53;;;;;;;10.18;3.58;;;;;;;2.16;100.00;98685.53;4947042;29;20035;-84
2022/01/06 11:08:23;;;;;;;9.05;3.45;;;;;;;2.27;100.00;98688.72;4945585;29;20475;-83
2022/01/06 11:11:02;;;;;;;12.60;3.72;;;;;;;2.24;100.00;98664.91;4941414;29;20081;-83
2022/01/06 11:13:36;;;;;;;10.98;3.55;;;;;;;2.32;100.00;98657.19;4941295;29;20035;-82
2022/01/06 11:16:03;;;;;;;9.52;3.20;;;;;;;2.38;100.00;98645.41;4930385;29;20477;-82
2022/01/06 11:18:29;;;;;;;10.25;3.78;;;;;;;2.40;100.00;98646.88;4946338;29;20023;-83
2022/01/06 11:21:09;;;;;;;8.55;3.70;;;;;;;2.39;100.00;98624.53;4925560;29;20400;-83
2022/01/06 11:23:35;;;;;;;10.52;3.67;;;;;;;2.49;100.00;98626.19;4941763;29;20027;-84
2022/01/06 11:26:03;;;;;;;12.57;3.47;;;;;;;2.40;100.00;98612.38;4947037;29;20118;-83
2022/01/06 11:28:30;;;;;;;11.35;3.72;;;;;;;2.57;100.00;98632.25;4948102;29;20492;-83
2022/01/06 11:30:56;;;;;;;10.68;3.42;;;;;;;2.55;100.00;98616.03;4943359;29;20038;-82
2022/01/06 11:33:22;;;;;;;14.70;3.78;;;;;;;2.64;100.00;98611.72;4947476;29;20393;-83
2022/01/06 11:35:48;;;;;;;8.25;3.00;;;;;;;2.72;100.00;98608.38;4942528;29;20027;-83
2022/01/06 11:38:17;;;;;;;10.85;4.30;;;;;;;2.63;100.00;98579.00;4928491;29;20070;-82